Terminal Aerodrome Forecast
Issued by NWS

Home | Current Version | Previous Version | Graphics & Text | Print | Product List | Glossary On
Versions: 1 2 3 4 5 6 7 8 9 10 11 12 13 14 15 16 17 18 19 20 21 22 23 24 25
043
FTUS43 KBIS 200839 AAA
TAFDIK
TAF AMD
KDIK 200839Z 2009/2106 31011KT P6SM VCSH OVC080
     FM201000 29012KT 5SM -RA BR OVC050
     FM201200 28010KT P6SM SCT090
     FM202200 25014KT P6SM SKC
     FM210100 22009KT P6SM FEW300
     FM210300 18006KT P6SM SCT180=

USA.gov is the U.S. government's official web portal to all federal, state and local government web resources and services.